Time;durP1;ratioP1;P1;durP2;ratioP2;P2;SDS_P1;SDS_P2;PMS_P1;PMS_P2;Temp;Humidity;BMP_temperature;BMP_pressure;BME280_temperature;BME280_humidity;BME280_pressure;Samples;Min_cycle;Max_cycle;Signal;HPM_P1;HPM_P2
2020/12/28 00:02:20;;;;;;;21.58;11.20;;;;;;;3.79;100.00;96644.03;5049349;28;20061;-81
2020/12/28 00:04:46;;;;;;;24.23;11.77;;;;;;;3.80;100.00;96641.31;5056779;28;20508;-81
2020/12/28 00:07:14;;;;;;;23.83;12.10;;;;;;;3.75;100.00;96635.38;5028530;28;20029;-81
2020/12/28 00:09:40;;;;;;;23.65;11.88;;;;;;;3.69;100.00;96637.50;5041618;28;20079;-81
2020/12/28 00:12:06;;;;;;;25.15;12.38;;;;;;;3.55;100.00;96626.75;5050934;28;20518;-81
2020/12/28 00:14:31;;;;;;;22.55;11.40;;;;;;;3.51;100.00;96626.03;5042350;28;20025;-81
2020/12/28 00:16:57;;;;;;;21.17;12.10;;;;;;;3.47;100.00;96631.56;5044167;28;20493;-80
2020/12/28 00:19:22;;;;;;;18.10;9.75;;;;;;;3.48;100.00;96626.19;5038556;28;20033;-81
2020/12/28 00:21:48;;;;;;;22.30;11.82;;;;;;;3.44;100.00;96614.06;5031353;28;20462;-81
2020/12/28 00:24:14;;;;;;;22.70;11.68;;;;;;;3.39;100.00;96579.06;5020308;28;20037;-81
2020/12/28 00:26:44;;;;;;;27.65;12.60;;;;;;;3.43;100.00;96553.34;5053760;28;20100;-81
2020/12/28 00:29:13;;;;;;;24.90;12.93;;;;;;;3.42;100.00;96578.91;5023264;28;20048;-81
2020/12/28 00:31:40;;;;;;;83.05;26.33;;;;;;;3.37;100.00;96594.16;5027224;28;20033;-81
2020/12/28 00:34:05;;;;;;;78.35;28.60;;;;;;;3.30;100.00;96605.94;5032905;28;20516;-81
2020/12/28 00:36:31;;;;;;;54.10;22.42;;;;;;;3.33;100.00;96583.78;5042876;28;20110;-81
2020/12/28 00:38:56;;;;;;;47.85;21.55;;;;;;;3.22;100.00;96586.97;5032772;28;20025;-80
2020/12/28 00:41:22;;;;;;;38.88;18.10;;;;;;;3.25;100.00;96576.25;5036263;28;20090;-81
2020/12/28 00:43:48;;;;;;;35.88;17.73;;;;;;;3.18;100.00;96564.25;5048918;28;20094;-81
2020/12/28 00:46:14;;;;;;;36.60;18.05;;;;;;;3.20;100.00;96568.53;5055183;28;20479;-81
2020/12/28 00:48:40;;;;;;;39.78;17.70;;;;;;;3.19;100.00;96581.84;5027509;28;20056;-81
2020/12/28 00:51:06;;;;;;;37.05;17.20;;;;;;;3.09;100.00;96570.00;5019275;28;20033;-81
2020/12/28 00:53:32;;;;;;;43.10;19.73;;;;;;;3.12;100.00;96559.28;5051572;28;20029;-81
2020/12/28 00:55:58;;;;;;;39.53;19.90;;;;;;;3.12;100.00;96564.56;5033773;28;20467;-81
2020/12/28 00:58:24;;;;;;;44.10;20.55;;;;;;;3.00;100.00;96550.16;5036467;28;20032;-81
2020/12/28 01:00:50;;;;;;;37.90;18.63;;;;;;;2.97;100.00;96545.03;5032479;28;20032;-81
2020/12/28 01:03:15;;;;;;;36.97;17.88;;;;;;;2.97;100.00;96542.41;5041501;28;20029;-81
2020/12/28 01:05:42;;;;;;;41.10;18.98;;;;;;;2.94;100.00;96539.91;5050801;28;20053;-81
2020/12/28 01:08:07;;;;;;;36.95;18.60;;;;;;;2.89;100.00;96535.78;5029721;28;20089;-81
2020/12/28 01:10:33;;;;;;;35.08;17.20;;;;;;;2.80;100.00;96546.78;5034346;28;20029;-81
2020/12/28 01:12:59;;;;;;;44.38;19.95;;;;;;;2.80;100.00;96552.06;5035566;28;20115;-81
2020/12/28 01:15:25;;;;;;;71.90;31.55;;;;;;;2.73;100.00;96562.91;5036732;28;20040;-80
2020/12/28 01:17:50;;;;;;;83.30;36.28;;;;;;;2.73;100.00;96565.56;5044004;28;20029;-81
2020/12/28 01:20:16;;;;;;;76.05;32.88;;;;;;;2.77;100.00;96546.94;5042767;28;20108;-81
2020/12/28 01:22:42;;;;;;;61.67;29.42;;;;;;;2.74;100.00;96540.84;5029138;28;20036;-80
2020/12/28 01:25:07;;;;;;;61.63;26.38;;;;;;;2.66;100.00;96545.63;5029333;28;20025;-81
2020/12/28 01:27:33;;;;;;;60.75;27.55;;;;;;;2.77;100.00;96568.03;5026747;28;20032;-81
2020/12/28 01:29:58;;;;;;;54.55;26.15;;;;;;;2.75;100.00;96554.91;5033283;28;20041;-81
2020/12/28 01:32:24;;;;;;;40.50;19.95;;;;;;;2.74;100.00;96543.47;5024360;28;20056;-81
2020/12/28 01:34:49;;;;;;;45.45;20.63;;;;;;;2.73;100.00;96552.34;5038256;28;20032;-81
2020/12/28 01:37:15;;;;;;;49.08;23.40;;;;;;;2.76;100.00;96534.66;5022852;28;20028;-81
2020/12/28 01:39:41;;;;;;;53.22;24.83;;;;;;;2.83;100.00;96544.00;5052565;28;20059;-81
2020/12/28 01:42:07;;;;;;;54.45;24.10;;;;;;;2.81;100.00;96532.63;5039672;28;20021;-81
2020/12/28 01:44:33;;;;;;;47.13;23.17;;;;;;;2.87;100.00;96527.06;5028290;28;20055;-81
2020/12/28 01:46:59;;;;;;;50.95;22.85;;;;;;;2.93;100.00;96524.97;5044361;28;20033;-81
2020/12/28 01:49:24;;;;;;;47.67;20.55;;;;;;;2.97;100.00;96520.41;5027236;28;20524;-81
2020/12/28 01:51:50;;;;;;;53.35;23.50;;;;;;;3.01;100.00;96511.41;5034906;28;20037;-81
2020/12/28 01:54:18;;;;;;;40.65;20.77;;;;;;;3.03;100.00;96513.03;5027845;28;20049;-81
2020/12/28 01:56:47;;;;;;;50.45;22.52;;;;;;;2.98;100.00;96516.84;5028588;28;20097;-81
2020/12/28 01:59:13;;;;;;;47.80;22.58;;;;;;;2.94;100.00;96496.78;5018342;28;20033;-81
2020/12/28 02:01:40;;;;;;;50.92;23.83;;;;;;;2.88;100.00;96489.16;5034622;28;20132;-81
2020/12/28 02:04:06;;;;;;;45.85;21.80;;;;;;;2.78;100.00;96493.19;5036569;28;20024;-81
2020/12/28 02:06:32;;;;;;;46.97;21.65;;;;;;;2.67;100.00;96505.13;5028846;28;20029;-81
2020/12/28 02:08:57;;;;;;;48.88;23.23;;;;;;;2.73;100.00;96496.91;5038658;28;20032;-81
2020/12/28 02:11:23;;;;;;;53.00;22.42;;;;;;;2.67;100.00;96494.56;5027292;28;20093;-81
2020/12/28 02:13:49;;;;;;;121.20;23.63;;;;;;;2.74;100.00;96503.88;5039858;28;20484;-81
2020/12/28 02:16:14;;;;;;;56.50;23.83;;;;;;;2.81;100.00;96517.66;5038554;28;20048;-81
2020/12/28 02:18:40;;;;;;;49.53;22.17;;;;;;;2.85;100.00;96513.09;5027538;28;20087;-81
2020/12/28 02:21:05;;;;;;;239.57;30.13;;;;;;;2.82;100.00;96508.81;5047397;28;20035;-81
2020/12/28 02:23:31;;;;;;;120.82;23.33;;;;;;;2.80;100.00;96499.25;5046711;28;20049;-81
2020/12/28 02:25:57;;;;;;;83.20;25.63;;;;;;;2.72;100.00;96494.34;5024631;28;20115;-81
2020/12/28 02:28:23;;;;;;;124.80;27.80;;;;;;;2.69;100.00;96487.41;5044724;28;20380;-82
2020/12/28 02:30:48;;;;;;;89.55;24.27;;;;;;;2.69;100.00;96490.06;5028334;28;20116;-81
2020/12/28 02:33:14;;;;;;;150.60;28.75;;;;;;;2.69;100.00;96490.06;5026562;28;20056;-81
2020/12/28 02:35:40;;;;;;;89.45;27.85;;;;;;;2.74;100.00;96490.69;5025654;28;20026;-81
2020/12/28 02:38:05;;;;;;;107.25;28.55;;;;;;;2.80;100.00;96496.63;5046973;28;20052;-81
2020/12/28 02:40:31;;;;;;;61.58;22.55;;;;;;;2.74;100.00;96490.69;5042491;28;20036;-81
2020/12/28 02:42:56;;;;;;;96.40;21.40;;;;;;;2.68;100.00;96480.41;5045759;28;20060;-81
2020/12/28 02:45:22;;;;;;;120.68;21.08;;;;;;;2.51;100.00;96477.75;5028062;28;20263;-81
2020/12/28 02:47:48;;;;;;;128.98;28.67;;;;;;;2.49;100.00;96479.59;5049794;28;20136;-81
2020/12/28 02:50:13;;;;;;;83.28;22.60;;;;;;;2.58;100.00;96478.31;5031063;28;20098;-81
2020/12/28 02:52:39;;;;;;;155.60;27.42;;;;;;;2.52;100.00;96495.28;5029394;28;20077;-81
2020/12/28 02:55:04;;;;;;;132.27;32.10;;;;;;;2.42;100.00;96509.84;5047620;28;20097;-81
2020/12/28 02:57:30;;;;;;;211.63;33.88;;;;;;;2.48;100.00;96520.13;5044037;28;20021;-80
2020/12/28 02:59:56;;;;;;;102.30;31.67;;;;;;;2.49;100.00;96513.88;5048418;28;20483;-81
2020/12/28 03:02:21;;;;;;;93.25;31.70;;;;;;;2.58;100.00;96510.84;5054408;28;20096;-81
2020/12/28 03:04:47;;;;;;;83.65;33.60;;;;;;;2.50;100.00;96522.66;5048002;28;20028;-80
2020/12/28 03:07:12;;;;;;;70.70;29.50;;;;;;;2.59;100.00;96523.09;5051784;28;20089;-79
2020/12/28 03:09:38;;;;;;;71.93;30.05;;;;;;;2.62;100.00;96544.06;5043239;28;20034;-80
2020/12/28 03:12:04;;;;;;;56.50;24.33;;;;;;;2.60;100.00;96535.38;5028614;28;20030;-81
2020/12/28 03:14:29;;;;;;;74.45;29.98;;;;;;;2.60;100.00;96545.94;5030366;28;20052;-81
2020/12/28 03:16:55;;;;;;;54.80;25.42;;;;;;;2.54;100.00;96534.78;5028139;28;20104;-81
2020/12/28 03:19:20;;;;;;;57.72;24.58;;;;;;;2.58;100.00;96546.94;5033839;28;20523;-81
2020/12/28 03:21:46;;;;;;;222.55;26.38;;;;;;;2.68;100.00;96559.59;5046423;28;20052;-81
2020/12/28 03:24:12;;;;;;;63.95;25.60;;;;;;;2.59;100.00;96538.94;5047260;28;20036;-81
2020/12/28 03:26:37;;;;;;;77.47;24.75;;;;;;;2.68;100.00;96551.69;5049808;28;20025;-81
2020/12/28 03:29:03;;;;;;;65.78;22.08;;;;;;;2.62;100.00;96532.66;5045948;28;20029;-80
2020/12/28 03:31:28;;;;;;;84.45;21.50;;;;;;;2.63;100.00;96537.88;5047536;28;20092;-81
2020/12/28 03:33:54;;;;;;;181.48;26.02;;;;;;;2.67;100.00;96536.81;5045664;28;20112;-81
2020/12/28 03:36:20;;;;;;;100.75;24.17;;;;;;;2.64;100.00;96526.38;5029917;28;20079;-82
2020/12/28 03:38:46;;;;;;;175.40;27.50;;;;;;;2.62;100.00;96538.78;5046495;28;20025;-81
2020/12/28 03:41:14;;;;;;;194.82;27.00;;;;;;;2.66;100.00;96535.09;5049681;28;20025;-80
2020/12/28 03:43:40;;;;;;;69.57;21.33;;;;;;;2.58;100.00;96529.31;5045634;28;20103;-81
2020/12/28 03:46:06;;;;;;;213.93;23.15;;;;;;;2.54;100.00;96522.47;5023016;28;20057;-81
2020/12/28 03:48:31;;;;;;;82.32;22.20;;;;;;;2.43;100.00;96518.63;5045301;28;20547;-81
2020/12/28 03:50:57;;;;;;;64.50;22.42;;;;;;;2.35;100.00;96529.50;5050350;28;20101;-81
2020/12/28 03:53:23;;;;;;;58.80;18.13;;;;;;;2.34;100.00;96524.31;5025376;28;20045;-81
2020/12/28 03:55:48;;;;;;;135.70;23.33;;;;;;;2.30;100.00;96534.16;5028229;28;20034;-81
2020/12/28 03:58:14;;;;;;;55.10;20.48;;;;;;;2.30;100.00;96531.53;5027046;28;20520;-81
2020/12/28 04:00:39;;;;;;;85.15;27.02;;;;;;;2.40;100.00;96537.22;5047087;28;20397;-81
2020/12/28 04:03:05;;;;;;;45.40;19.13;;;;;;;2.41;100.00;96539.78;5041749;28;20113;-80
2020/12/28 04:05:31;;;;;;;73.93;33.38;;;;;;;2.49;100.00;96542.91;5052171;28;20530;-81
2020/12/28 04:07:57;;;;;;;85.85;36.97;;;;;;;2.62;100.00;96553.75;5047084;28;20033;-80
2020/12/28 04:10:22;;;;;;;58.30;26.85;;;;;;;2.68;100.00;96549.06;5030402;28;20124;-81
2020/12/28 04:12:48;;;;;;;61.28;27.20;;;;;;;2.77;100.00;96539.00;5048783;28;20063;-81
2020/12/28 04:15:13;;;;;;;69.13;34.40;;;;;;;2.84;100.00;96525.41;5044623;28;20447;-81
2020/12/28 04:17:39;;;;;;;76.65;35.05;;;;;;;2.85;100.00;96524.50;5044893;28;20523;-81
2020/12/28 04:20:05;;;;;;;79.15;40.03;;;;;;;2.84;100.00;96521.91;5049755;28;20020;-80
2020/12/28 04:22:31;;;;;;;75.78;34.22;;;;;;;2.98;100.00;96532.69;5046325;28;20021;-81
2020/12/28 04:24:56;;;;;;;65.90;31.48;;;;;;;3.25;100.00;96524.28;5048526;28;20029;-81
2020/12/28 04:27:22;;;;;;;77.10;34.53;;;;;;;3.49;100.00;96539.81;5048540;28;20029;-81
2020/12/28 04:29:48;;;;;;;78.47;38.40;;;;;;;3.56;100.00;96535.94;5049406;28;20033;-81
2020/12/28 04:32:14;;;;;;;78.75;39.83;;;;;;;3.59;100.00;96533.16;5033774;28;20033;-81
2020/12/28 04:34:40;;;;;;;87.95;45.70;;;;;;;3.72;100.00;96539.53;5032576;28;20056;-81
2020/12/28 04:37:06;;;;;;;100.15;45.60;;;;;;;3.82;100.00;96536.31;5031810;28;20021;-81
2020/12/28 04:39:32;;;;;;;80.35;36.53;;;;;;;3.87;100.00;96532.59;5044782;28;20021;-80
2020/12/28 04:41:57;;;;;;;128.23;57.95;;;;;;;3.77;100.00;96542.78;5046815;28;20013;-81
2020/12/28 04:44:23;;;;;;;116.88;52.28;;;;;;;3.66;100.00;96543.31;5031896;28;20033;-81
2020/12/28 04:46:48;;;;;;;123.43;54.17;;;;;;;3.63;100.00;96540.81;5049275;28;20032;-82
2020/12/28 04:49:14;;;;;;;122.55;51.67;;;;;;;3.49;100.00;96553.91;5051237;28;20065;-81
2020/12/28 04:51:40;;;;;;;94.78;43.47;;;;;;;4.11;100.00;96568.34;5036924;28;20033;-81
2020/12/28 04:54:05;;;;;;;73.97;33.78;;;;;;;3.78;100.00;96574.41;5029651;28;20075;-81
2020/12/28 04:56:35;;;;;;;100.45;27.55;;;;;;;3.31;100.00;96573.31;5041620;28;20029;-81
2020/12/28 04:59:00;;;;;;;72.72;27.45;;;;;;;2.90;100.00;96572.66;5027626;28;20454;-81
2020/12/28 05:01:26;;;;;;;81.28;28.13;;;;;;;2.57;100.00;96553.13;5028703;28;20021;-81
2020/12/28 05:03:53;;;;;;;70.50;26.75;;;;;;;2.79;100.00;96568.81;5056546;28;20037;-80
2020/12/28 05:06:19;;;;;;;27.40;13.40;;;;;;;3.11;100.00;96573.41;5053210;28;20021;-81
2020/12/28 05:08:45;;;;;;;21.05;9.63;;;;;;;4.42;100.00;96572.88;5033900;28;20032;-81
2020/12/28 05:11:14;;;;;;;21.92;11.02;;;;;;;5.69;100.00;96590.38;5029606;28;20067;-81
2020/12/28 05:13:46;;;;;;;15.85;8.68;;;;;;;6.60;100.00;96582.28;5033588;28;20520;-81
2020/12/28 05:16:12;;;;;;;10.80;5.80;;;;;;;7.32;100.00;96589.22;5046846;28;20021;-81
2020/12/28 05:18:38;;;;;;;7.18;5.05;;;;;;;7.80;100.00;96583.34;5022517;28;20036;-81
2020/12/28 05:21:03;;;;;;;8.32;5.32;;;;;;;8.06;100.00;96574.44;5043415;28;20071;-81
2020/12/28 05:23:31;;;;;;;12.60;6.15;;;;;;;8.41;98.74;96573.91;5026839;28;20025;-81
2020/12/28 05:25:56;;;;;;;16.02;8.77;;;;;;;8.65;96.41;96574.84;5025211;28;20037;-81
2020/12/28 05:28:25;;;;;;;23.38;14.55;;;;;;;8.91;93.09;96573.88;5041355;28;20032;-81
2020/12/28 05:30:51;;;;;;;7.07;3.92;;;;;;;9.16;91.29;96594.34;5022954;28;20033;-81
2020/12/28 05:33:18;;;;;;;7.35;4.53;;;;;;;9.23;91.18;96606.25;5027386;28;20084;-82
2020/12/28 05:35:45;;;;;;;13.23;8.30;;;;;;;9.23;90.89;96617.78;5027660;28;20035;-80
2020/12/28 05:38:12;;;;;;;8.18;4.38;;;;;;;9.13;91.24;96606.06;5029672;28;20021;-81
2020/12/28 05:40:38;;;;;;;8.88;4.38;;;;;;;9.15;90.70;96619.28;5026584;28;20431;-81
2020/12/28 05:43:04;;;;;;;8.48;4.63;;;;;;;9.34;89.45;96621.50;5028475;28;20024;-81
2020/12/28 05:45:31;;;;;;;8.13;4.90;;;;;;;9.38;88.27;96634.53;5045144;28;20036;-82
2020/12/28 05:47:58;;;;;;;8.20;5.10;;;;;;;9.43;88.56;96628.84;5029049;28;20071;-82
2020/12/28 05:50:33;;;;;;;9.43;5.40;;;;;;;9.40;89.04;96637.06;5045193;28;20044;-81
2020/12/28 05:53:01;;;;;;;7.85;4.70;;;;;;;9.45;87.65;96635.78;5028937;28;20511;-83
2020/12/28 05:55:28;;;;;;;8.13;3.92;;;;;;;9.46;86.97;96639.28;5030443;28;20026;-81
2020/12/28 05:57:55;;;;;;;10.73;3.83;;;;;;;9.57;86.40;96642.03;5023535;28;20447;-82
2020/12/28 06:00:21;;;;;;;8.98;5.03;;;;;;;9.52;86.99;96633.50;5042133;28;20469;-82
2020/12/28 06:02:47;;;;;;;10.52;5.53;;;;;;;9.46;87.35;96628.63;5039062;28;20435;-81
2020/12/28 06:05:16;;;;;;;12.80;6.30;;;;;;;9.46;87.05;96621.47;5021451;28;20025;-81
2020/12/28 06:07:42;;;;;;;8.73;5.30;;;;;;;9.40;87.27;96621.91;5041398;28;20037;-81
2020/12/28 06:10:09;;;;;;;9.20;4.70;;;;;;;9.37;87.14;96632.81;5020642;28;20017;-81
2020/12/28 06:12:35;;;;;;;8.85;5.30;;;;;;;9.47;85.71;96630.34;5032121;28;20066;-81
2020/12/28 06:15:41;;;;;;;11.93;4.80;;;;;;;9.59;85.12;96638.31;5048353;28;20100;-80
2020/12/28 06:18:18;;;;;;;6.97;4.40;;;;;;;9.64;84.63;96643.31;5034734;28;20044;-81
2020/12/28 06:20:44;;;;;;;11.63;6.10;;;;;;;9.75;83.64;96646.06;5026398;28;20065;-80
2020/12/28 06:23:09;;;;;;;14.90;7.13;;;;;;;9.84;83.97;96645.38;5028015;28;20040;-81
2020/12/28 06:25:51;;;;;;;16.67;9.20;;;;;;;9.78;86.70;96653.84;5036685;28;20551;-82
2020/12/28 06:28:25;;;;;;;11.25;6.80;;;;;;;9.79;84.94;96653.72;5043563;28;20053;-83
2020/12/28 06:30:51;;;;;;;7.93;4.80;;;;;;;9.91;84.16;96662.66;5024343;28;20415;-82
2020/12/28 06:33:20;;;;;;;6.60;4.70;;;;;;;9.97;84.17;96656.84;5027624;28;20047;-82
2020/12/28 06:35:45;;;;;;;15.38;7.80;;;;;;;9.96;84.47;96655.16;5028107;28;20467;-82
2020/12/28 06:38:11;;;;;;;14.75;9.27;;;;;;;9.89;84.67;96643.22;5028073;28;20068;-82
2020/12/28 06:40:44;;;;;;;14.10;8.13;;;;;;;9.92;84.62;96643.00;5030637;28;20040;-83
2020/12/28 06:43:18;;;;;;;12.10;7.00;;;;;;;9.92;85.12;96653.69;5024059;28;20064;-82
2020/12/28 06:45:49;;;;;;;10.27;6.25;;;;;;;10.03;84.06;96629.69;5025997;28;20048;-81
2020/12/28 06:48:22;;;;;;;19.23;11.70;;;;;;;10.03;85.02;96635.03;5035396;28;20103;-80
2020/12/28 06:50:51;;;;;;;15.95;9.60;;;;;;;10.09;85.25;96633.75;5027138;28;20092;-85
2020/12/28 06:53:26;;;;;;;13.95;7.28;;;;;;;10.76;82.40;96641.03;5018251;28;20433;-83
2020/12/28 06:55:52;;;;;;;11.75;6.10;;;;;;;10.84;80.00;96648.47;5021262;28;20107;-83
2020/12/28 06:58:18;;;;;;;41.45;24.35;;;;;;;10.73;81.70;96651.13;5023855;28;20029;-84
2020/12/28 07:00:44;;;;;;;17.42;10.48;;;;;;;10.55;81.24;96621.28;5036039;28;20076;-83
2020/12/28 07:04:13;;;;;;;20.77;13.60;;;;;;;10.49;81.16;96648.47;5041379;28;20063;-85
2020/12/28 07:06:17;;;;;;;25.02;15.68;;;;;;;10.89;79.30;96644.47;5032386;28;20512;-83
2020/12/28 07:08:46;;;;;;;15.27;8.90;;;;;;;11.83;75.04;96652.16;5019261;28;20495;-84
2020/12/28 07:11:16;;;;;;;9.50;5.97;;;;;;;12.76;70.12;96661.34;5018076;28;20084;-83
2020/12/28 07:13:42;;;;;;;42.28;20.27;;;;;;;13.15;70.25;96671.38;5018967;28;20040;-83
2020/12/28 07:16:08;;;;;;;30.77;17.05;;;;;;;13.31;67.89;96685.19;5039197;28;20029;-82
2020/12/28 07:18:35;;;;;;;22.38;10.48;;;;;;;13.83;64.58;96675.22;5049742;28;20399;-81
2020/12/28 07:21:02;;;;;;;25.83;15.30;;;;;;;14.50;61.66;96684.34;5018211;28;20029;-83
2020/12/28 07:23:29;;;;;;;29.83;16.00;;;;;;;14.72;60.30;96687.75;5039937;28;20053;-84
2020/12/28 07:26:06;;;;;;;20.95;12.13;;;;;;;15.02;59.07;96693.81;5032795;28;20060;-84
2020/12/28 07:28:33;;;;;;;11.93;7.57;;;;;;;15.44;57.20;96688.91;5020493;28;20057;-85
2020/12/28 07:31:03;;;;;;;11.40;7.85;;;;;;;15.37;56.88;96676.19;5030606;28;20069;-84
2020/12/28 07:33:38;;;;;;;16.02;9.75;;;;;;;14.96;58.77;96682.75;5035090;28;20029;-85
2020/12/28 07:36:12;;;;;;;18.73;9.23;;;;;;;14.94;58.23;96690.16;5037610;28;20037;-83
2020/12/28 07:38:41;;;;;;;6.95;5.05;;;;;;;15.23;57.48;96693.63;5028572;28;20028;-82
2020/12/28 07:41:07;;;;;;;11.80;7.63;;;;;;;15.50;56.65;96666.81;5030626;28;20031;-82
2020/12/28 07:43:58;;;;;;;14.77;7.20;;;;;;;15.75;55.29;96659.88;5037436;28;20025;-85
2020/12/28 07:46:35;;;;;;;13.13;6.75;;;;;;;16.05;53.77;96651.53;5044851;28;20437;-83
2020/12/28 07:49:11;;;;;;;7.70;5.43;;;;;;;16.33;52.49;96638.88;5045270;28;20047;-83
2020/12/28 07:51:52;;;;;;;4.57;3.20;;;;;;;16.26;52.52;96637.75;5022804;28;20400;-82
2020/12/28 07:54:22;;;;;;;8.97;6.07;;;;;;;16.13;53.26;96638.13;5046630;28;20033;-84
2020/12/28 07:56:58;;;;;;;10.57;6.00;;;;;;;16.27;53.12;96639.47;5035148;28;20337;-80
2020/12/28 07:59:45;;;;;;;12.10;7.28;;;;;;;16.83;51.72;96647.28;5024664;28;20120;-80
2020/12/28 08:02:29;;;;;;;8.73;5.47;;;;;;;16.85;50.53;96649.84;5026547;28;20372;-79
2020/12/28 08:04:56;;;;;;;10.25;5.65;;;;;;;17.19;48.88;96665.16;5038451;28;20036;-79
2020/12/28 08:07:25;;;;;;;5.60;3.83;;;;;;;17.49;47.02;96636.81;5033004;28;20075;-80
2020/12/28 08:09:54;;;;;;;13.20;6.70;;;;;;;17.32;47.91;96648.50;5033315;28;20106;-79
2020/12/28 08:12:21;;;;;;;12.55;7.43;;;;;;;17.99;45.83;96647.75;5033805;28;20040;-79
2020/12/28 08:14:56;;;;;;;20.67;8.73;;;;;;;18.30;45.42;96645.34;5022292;28;20033;-78
2020/12/28 08:17:26;;;;;;;10.27;6.95;;;;;;;18.56;45.21;96646.09;5038765;28;20035;-80
2020/12/28 08:19:52;;;;;;;5.40;3.95;;;;;;;19.12;43.47;96660.72;5044057;28;20068;-80
2020/12/28 08:22:20;;;;;;;10.40;6.32;;;;;;;19.24;42.41;96662.91;5048111;28;20151;-80
2020/12/28 08:24:45;;;;;;;8.10;5.53;;;;;;;19.04;42.54;96668.88;5035984;28;20504;-79
2020/12/28 08:27:11;;;;;;;5.13;3.08;;;;;;;17.95;43.53;96645.53;5050574;28;20075;-77
2020/12/28 08:29:37;;;;;;;8.13;5.30;;;;;;;18.06;45.04;96628.97;5027236;28;20111;-77
2020/12/28 08:32:09;;;;;;;4.18;2.38;;;;;;;17.25;45.46;96598.81;5045869;28;20105;-78
2020/12/28 08:34:35;;;;;;;12.18;5.85;;;;;;;17.58;44.94;96616.97;5021607;28;20020;-79
2020/12/28 08:37:01;;;;;;;8.82;5.18;;;;;;;18.03;43.99;96621.19;5031998;28;20039;-78
2020/12/28 08:39:28;;;;;;;8.52;3.83;;;;;;;17.50;44.45;96611.47;5049239;28;20563;-83
2020/12/28 08:41:58;;;;;;;9.82;5.13;;;;;;;17.50;44.27;96618.75;5027348;28;20129;-80
2020/12/28 08:44:31;;;;;;;12.05;6.38;;;;;;;18.21;43.56;96613.84;5023575;28;20033;-80
2020/12/28 08:46:57;;;;;;;8.38;5.15;;;;;;;18.77;42.32;96594.97;5042752;28;20484;-79
2020/12/28 08:49:27;;;;;;;3.78;2.58;;;;;;;18.36;41.93;96599.47;5035029;28;20053;-77
2020/12/28 08:52:54;;;;;;;4.75;2.80;;;;;;;17.96;43.21;96588.56;5022374;28;20037;-81
2020/12/28 08:55:19;;;;;;;4.63;2.25;;;;;;;17.59;42.52;96597.03;5034582;28;20033;-82
2020/12/28 08:58:10;;;;;;;;;;;;;;;;;;;;;
2020/12/28 09:00:51;;;;;;;5.55;3.20;;;;;;;18.55;40.67;96581.28;5040569;28;20035;-81
2020/12/28 09:03:35;;;;;;;6.82;4.55;;;;;;;19.31;39.77;96595.28;5041742;28;20113;-80
2020/12/28 09:06:19;;;;;;;7.50;3.63;;;;;;;19.00;38.74;96545.53;5047013;28;20035;-80
2020/12/28 09:08:48;;;;;;;5.47;2.40;;;;;;;19.26;38.69;96578.66;5045466;28;20416;-80
2020/12/28 09:11:13;;;;;;;4.68;2.45;;;;;;;19.55;38.69;96570.84;5022034;28;20032;-82
2020/12/28 09:13:39;;;;;;;8.55;5.10;;;;;;;19.45;39.54;96564.78;5025242;28;20095;-81
2020/12/28 09:16:04;;;;;;;7.43;3.35;;;;;;;19.17;39.87;96556.16;5054593;28;21667;-83
2020/12/28 09:18:30;;;;;;;9.13;4.60;;;;;;;19.55;38.57;96557.28;5038034;28;20071;-82
2020/12/28 09:20:56;;;;;;;5.97;3.78;;;;;;;19.40;39.46;96569.88;5047962;28;20026;-82
2020/12/28 09:23:21;;;;;;;4.97;3.33;;;;;;;19.48;38.58;96573.41;5046874;28;20045;-81
2020/12/28 09:25:47;;;;;;;8.10;4.63;;;;;;;19.77;38.51;96583.66;5044839;28;20037;-84
2020/12/28 09:28:12;;;;;;;7.70;4.72;;;;;;;19.85;38.22;96566.50;5031070;28;20040;-83
2020/12/28 09:30:38;;;;;;;10.38;5.25;;;;;;;19.81;38.14;96576.84;5026502;28;20033;-83
2020/12/28 09:33:04;;;;;;;11.70;5.40;;;;;;;19.67;39.57;96583.03;5019950;28;20156;-82
2020/12/28 09:35:29;;;;;;;7.50;4.50;;;;;;;20.34;38.60;96573.38;5045238;28;20025;-82
2020/12/28 09:37:55;;;;;;;7.85;4.82;;;;;;;19.66;38.38;96565.03;5044451;28;20032;-82
2020/12/28 09:40:20;;;;;;;5.97;3.20;;;;;;;19.98;38.68;96575.78;5023492;28;20041;-82
2020/12/28 09:42:46;;;;;;;7.45;3.42;;;;;;;19.87;38.69;96562.56;5037781;28;20124;-82
2020/12/28 09:47:56;;;;;;;12.07;5.78;;;;;;;18.78;41.07;96568.75;5037534;28;20128;-82
2020/12/28 09:50:22;;;;;;;7.35;4.47;;;;;;;19.25;41.03;96563.44;5046319;28;20073;-82
2020/12/28 09:52:48;;;;;;;10.73;5.15;;;;;;;20.02;38.19;96562.69;5021104;28;20033;-84
2020/12/28 09:55:13;;;;;;;8.32;4.57;;;;;;;21.00;36.03;96567.28;5046990;28;20037;-83
2020/12/28 09:57:40;;;;;;;9.50;5.10;;;;;;;20.78;37.39;96562.72;5047349;28;20094;-83
2020/12/28 10:00:05;;;;;;;10.93;5.88;;;;;;;20.81;37.10;96578.66;5031958;28;20032;-81
2020/12/28 10:02:31;;;;;;;7.68;4.82;;;;;;;21.37;34.68;96568.34;5033302;28;20034;-79
2020/12/28 10:04:57;;;;;;;10.43;6.50;;;;;;;21.71;36.96;96581.41;5014377;28;20554;-81
2020/12/28 10:07:22;;;;;;;9.30;5.32;;;;;;;21.51;35.14;96565.63;5029750;28;20036;-81
2020/12/28 10:09:48;;;;;;;8.35;3.90;;;;;;;21.53;35.50;96566.25;5055504;28;20037;-80
2020/12/28 10:12:21;;;;;;;4.45;2.80;;;;;;;21.52;34.88;96561.88;5027402;28;20416;-81
2020/12/28 10:14:46;;;;;;;9.00;5.43;;;;;;;21.92;34.48;96557.00;5022803;28;20034;-81
2020/12/28 10:17:12;;;;;;;10.38;5.70;;;;;;;22.69;32.44;96549.97;5024994;28;20018;-84
2020/12/28 10:19:38;;;;;;;8.75;4.40;;;;;;;22.37;32.28;96548.53;5023466;28;20395;-79
2020/12/28 10:22:03;;;;;;;11.02;6.18;;;;;;;22.45;33.44;96543.00;5049662;28;20049;-81
2020/12/28 10:24:29;;;;;;;4.43;2.80;;;;;;;21.94;33.03;96535.88;5059821;28;20052;-80
2020/12/28 10:26:55;;;;;;;10.38;6.15;;;;;;;21.18;34.90;96530.78;5042994;28;20110;-81
2020/12/28 10:29:21;;;;;;;4.40;2.85;;;;;;;21.07;34.48;96519.28;5045176;28;20025;-79
2020/12/28 10:31:46;;;;;;;5.03;3.20;;;;;;;21.14;35.47;96511.25;5039590;28;20024;-87
2020/12/28 10:34:12;;;;;;;10.50;7.13;;;;;;;22.46;33.61;96511.09;5036308;28;20029;-82
2020/12/28 10:36:38;;;;;;;14.38;10.63;;;;;;;23.26;32.38;96511.63;5050731;28;20104;-80
2020/12/28 10:39:04;;;;;;;7.40;4.82;;;;;;;23.74;30.59;96518.91;5036750;28;20397;-81
2020/12/28 10:41:32;;;;;;;5.50;3.13;;;;;;;23.16;30.93;96503.78;5038009;28;20432;-80
2020/12/28 10:43:59;;;;;;;7.57;4.97;;;;;;;23.11;31.00;96495.38;5002328;28;20488;-82
2020/12/28 10:46:25;;;;;;;2.75;2.28;;;;;;;21.70;32.59;96501.59;5040868;28;20025;-84
2020/12/28 10:48:54;;;;;;;7.00;4.63;;;;;;;21.97;33.66;96500.94;5061016;28;20024;-84
2020/12/28 10:51:19;;;;;;;6.05;4.10;;;;;;;23.05;31.54;96495.31;5037326;28;20056;-83
2020/12/28 10:53:45;;;;;;;7.68;4.50;;;;;;;23.32;31.77;96510.84;5021769;28;20056;-86
2020/12/28 10:56:11;;;;;;;3.50;2.97;;;;;;;23.55;29.82;96499.69;5022585;28;20026;-84
2020/12/28 10:58:37;;;;;;;7.15;4.40;;;;;;;23.46;30.63;96490.81;5039971;28;20037;-81
2020/12/28 11:01:05;;;;;;;3.95;2.90;;;;;;;23.34;30.24;96508.78;5036325;28;20036;-80
2020/12/28 11:03:34;;;;;;;4.85;3.25;;;;;;;23.21;30.60;96497.75;5021780;28;20497;-79
2020/12/28 11:06:03;;;;;;;10.23;4.93;;;;;;;22.99;31.48;96496.97;5036626;28;20436;-80
2020/12/28 11:08:30;;;;;;;4.07;3.13;;;;;;;23.29;30.28;96496.78;5036979;28;20443;-80
2020/12/28 11:10:55;;;;;;;2.22;1.88;;;;;;;22.56;31.33;96481.66;5035225;28;20511;-80
2020/12/28 11:13:21;;;;;;;8.82;4.28;;;;;;;22.62;31.42;96489.03;5052855;28;20032;-86
2020/12/28 11:15:47;;;;;;;5.30;3.08;;;;;;;22.75;30.72;96475.56;5039601;28;20032;-81
2020/12/28 11:18:15;;;;;;;5.28;3.28;;;;;;;22.60;31.71;96491.13;5059155;28;20412;-82
2020/12/28 11:20:40;;;;;;;4.85;3.55;;;;;;;22.27;32.59;96498.13;5026735;28;20029;-81
2020/12/28 11:23:06;;;;;;;4.70;3.50;;;;;;;22.66;31.81;96493.97;5036158;28;20072;-79
2020/12/28 11:25:33;;;;;;;7.57;4.55;;;;;;;22.91;31.70;96499.84;5036886;28;20035;-79
2020/12/28 11:27:59;;;;;;;10.77;4.80;;;;;;;22.41;33.35;96500.81;5050688;28;20029;-80
2020/12/28 11:30:25;;;;;;;4.75;3.35;;;;;;;22.66;32.04;96495.84;5028721;28;20075;-80